sensor_id;sensor_type;location;lat;lon;timestamp;P1;durP1;ratioP1;P2;durP2;ratioP2
13185;SDS011;6658;53.080;7.428;2024-01-30T00:00:05;13.50;;;11.90;;
13185;SDS011;6658;53.080;7.428;2024-01-30T00:02:31;12.80;;;10.97;;
13185;SDS011;6658;53.080;7.428;2024-01-30T00:05:01;12.60;;;11.40;;
13185;SDS011;6658;53.080;7.428;2024-01-30T00:07:28;13.00;;;11.70;;
13185;SDS011;6658;53.080;7.428;2024-01-30T00:09:54;13.73;;;12.33;;
13185;SDS011;6658;53.080;7.428;2024-01-30T00:12:20;12.57;;;11.13;;
13185;SDS011;6658;53.080;7.428;2024-01-30T00:14:55;13.27;;;11.97;;
13185;SDS011;6658;53.080;7.428;2024-01-30T00:17:29;12.57;;;11.47;;
13185;SDS011;6658;53.080;7.428;2024-01-30T00:19:59;13.67;;;12.33;;
13185;SDS011;6658;53.080;7.428;2024-01-30T00:22:25;12.43;;;11.23;;
13185;SDS011;6658;53.080;7.428;2024-01-30T00:24:58;13.67;;;12.27;;
13185;SDS011;6658;53.080;7.428;2024-01-30T00:27:25;12.90;;;11.63;;
13185;SDS011;6658;53.080;7.428;2024-01-30T00:29:54;12.73;;;11.57;;
13185;SDS011;6658;53.080;7.428;2024-01-30T00:32:22;13.23;;;12.03;;
13185;SDS011;6658;53.080;7.428;2024-01-30T00:34:51;14.17;;;12.70;;
13185;SDS011;6658;53.080;7.428;2024-01-30T00:37:20;13.40;;;12.17;;
13185;SDS011;6658;53.080;7.428;2024-01-30T00:39:45;15.43;;;13.53;;
13185;SDS011;6658;53.080;7.428;2024-01-30T00:42:11;14.37;;;12.83;;
13185;SDS011;6658;53.080;7.428;2024-01-30T00:44:37;14.70;;;13.30;;
13185;SDS011;6658;53.080;7.428;2024-01-30T00:47:04;13.70;;;12.23;;
13185;SDS011;6658;53.080;7.428;2024-01-30T00:49:30;12.90;;;11.53;;
13185;SDS011;6658;53.080;7.428;2024-01-30T00:51:56;15.00;;;13.60;;
13185;SDS011;6658;53.080;7.428;2024-01-30T00:54:22;14.07;;;12.67;;
13185;SDS011;6658;53.080;7.428;2024-01-30T00:56:47;14.23;;;12.70;;
13185;SDS011;6658;53.080;7.428;2024-01-30T00:59:13;14.17;;;12.70;;
13185;SDS011;6658;53.080;7.428;2024-01-30T01:01:39;13.33;;;12.03;;
13185;SDS011;6658;53.080;7.428;2024-01-30T01:04:04;14.57;;;13.07;;
13185;SDS011;6658;53.080;7.428;2024-01-30T01:06:30;14.23;;;12.63;;
13185;SDS011;6658;53.080;7.428;2024-01-30T01:08:56;15.53;;;12.80;;
13185;SDS011;6658;53.080;7.428;2024-01-30T01:11:21;14.83;;;13.20;;
13185;SDS011;6658;53.080;7.428;2024-01-30T01:13:47;14.60;;;13.27;;
13185;SDS011;6658;53.080;7.428;2024-01-30T01:16:13;15.17;;;13.73;;
13185;SDS011;6658;53.080;7.428;2024-01-30T01:18:39;16.83;;;13.53;;
13185;SDS011;6658;53.080;7.428;2024-01-30T01:21:05;15.50;;;13.03;;
13185;SDS011;6658;53.080;7.428;2024-01-30T01:23:31;15.20;;;13.70;;
13185;SDS011;6658;53.080;7.428;2024-01-30T01:25:56;15.93;;;14.33;;
13185;SDS011;6658;53.080;7.428;2024-01-30T01:28:24;14.77;;;13.37;;
13185;SDS011;6658;53.080;7.428;2024-01-30T01:30:53;15.03;;;13.13;;
13185;SDS011;6658;53.080;7.428;2024-01-30T01:33:27;14.73;;;13.23;;
13185;SDS011;6658;53.080;7.428;2024-01-30T01:35:52;13.23;;;12.03;;
13185;SDS011;6658;53.080;7.428;2024-01-30T01:38:18;13.33;;;11.93;;
13185;SDS011;6658;53.080;7.428;2024-01-30T01:40:44;14.53;;;13.10;;
13185;SDS011;6658;53.080;7.428;2024-01-30T01:43:11;13.73;;;12.40;;
13185;SDS011;6658;53.080;7.428;2024-01-30T01:45:36;13.27;;;11.87;;
13185;SDS011;6658;53.080;7.428;2024-01-30T01:48:02;13.77;;;12.37;;
13185;SDS011;6658;53.080;7.428;2024-01-30T01:50:28;13.03;;;11.70;;
13185;SDS011;6658;53.080;7.428;2024-01-30T01:52:56;13.77;;;12.03;;
13185;SDS011;6658;53.080;7.428;2024-01-30T01:55:25;13.70;;;12.50;;
13185;SDS011;6658;53.080;7.428;2024-01-30T01:57:53;13.43;;;12.10;;
13185;SDS011;6658;53.080;7.428;2024-01-30T02:39:49;14.17;;;12.50;;
13185;SDS011;6658;53.080;7.428;2024-01-30T02:42:15;14.77;;;13.17;;
13185;SDS011;6658;53.080;7.428;2024-01-30T02:44:41;14.10;;;12.60;;
13185;SDS011;6658;53.080;7.428;2024-01-30T02:47:06;15.10;;;13.63;;
13185;SDS011;6658;53.080;7.428;2024-01-30T02:49:32;13.50;;;12.13;;
13185;SDS011;6658;53.080;7.428;2024-01-30T02:51:57;15.10;;;13.73;;
13185;SDS011;6658;53.080;7.428;2024-01-30T02:54:23;13.90;;;12.60;;
13185;SDS011;6658;53.080;7.428;2024-01-30T02:56:49;13.07;;;11.90;;
13185;SDS011;6658;53.080;7.428;2024-01-30T02:59:15;15.07;;;13.10;;
13185;SDS011;6658;53.080;7.428;2024-01-30T03:01:43;13.30;;;12.00;;
13185;SDS011;6658;53.080;7.428;2024-01-30T03:04:10;15.03;;;13.53;;
13185;SDS011;6658;53.080;7.428;2024-01-30T03:06:36;14.70;;;13.23;;
13185;SDS011;6658;53.080;7.428;2024-01-30T03:09:02;14.70;;;13.30;;
13185;SDS011;6658;53.080;7.428;2024-01-30T03:11:28;14.10;;;12.70;;
13185;SDS011;6658;53.080;7.428;2024-01-30T03:13:53;13.60;;;12.20;;
13185;SDS011;6658;53.080;7.428;2024-01-30T03:16:19;13.70;;;12.33;;
13185;SDS011;6658;53.080;7.428;2024-01-30T03:18:45;13.87;;;12.57;;
13185;SDS011;6658;53.080;7.428;2024-01-30T03:21:10;14.83;;;13.33;;
13185;SDS011;6658;53.080;7.428;2024-01-30T03:23:36;14.33;;;12.93;;
13185;SDS011;6658;53.080;7.428;2024-01-30T03:26:02;13.63;;;12.33;;
13185;SDS011;6658;53.080;7.428;2024-01-30T03:28:29;13.27;;;12.00;;
13185;SDS011;6658;53.080;7.428;2024-01-30T03:30:55;13.03;;;11.83;;
13185;SDS011;6658;53.080;7.428;2024-01-30T03:33:20;14.37;;;12.93;;
13185;SDS011;6658;53.080;7.428;2024-01-30T03:35:46;12.73;;;11.63;;
13185;SDS011;6658;53.080;7.428;2024-01-30T03:38:12;13.30;;;12.10;;
13185;SDS011;6658;53.080;7.428;2024-01-30T03:40:37;12.60;;;11.43;;
13185;SDS011;6658;53.080;7.428;2024-01-30T03:43:03;13.17;;;11.83;;
13185;SDS011;6658;53.080;7.428;2024-01-30T03:45:30;15.03;;;12.27;;
13185;SDS011;6658;53.080;7.428;2024-01-30T03:47:55;14.13;;;12.83;;
13185;SDS011;6658;53.080;7.428;2024-01-30T03:50:21;12.50;;;11.20;;
13185;SDS011;6658;53.080;7.428;2024-01-30T03:52:47;13.50;;;12.20;;
13185;SDS011;6658;53.080;7.428;2024-01-30T03:55:12;12.47;;;11.27;;
13185;SDS011;6658;53.080;7.428;2024-01-30T03:57:38;13.13;;;11.83;;
13185;SDS011;6658;53.080;7.428;2024-01-30T04:00:04;12.37;;;11.27;;
13185;SDS011;6658;53.080;7.428;2024-01-30T04:05:49;13.57;;;12.27;;
13185;SDS011;6658;53.080;7.428;2024-01-30T04:08:16;11.77;;;10.77;;
13185;SDS011;6658;53.080;7.428;2024-01-30T04:10:42;13.20;;;11.67;;
13185;SDS011;6658;53.080;7.428;2024-01-30T04:13:08;12.73;;;11.43;;
13185;SDS011;6658;53.080;7.428;2024-01-30T04:15:34;12.53;;;11.33;;
13185;SDS011;6658;53.080;7.428;2024-01-30T04:18:00;12.30;;;11.10;;
13185;SDS011;6658;53.080;7.428;2024-01-30T04:20:26;11.37;;;10.27;;
13185;SDS011;6658;53.080;7.428;2024-01-30T04:22:51;12.63;;;11.33;;
13185;SDS011;6658;53.080;7.428;2024-01-30T04:25:17;11.73;;;10.53;;
13185;SDS011;6658;53.080;7.428;2024-01-30T04:27:43;11.07;;;10.07;;
13185;SDS011;6658;53.080;7.428;2024-01-30T04:30:08;11.00;;;9.87;;
13185;SDS011;6658;53.080;7.428;2024-01-30T04:32:35;10.83;;;9.87;;
13185;SDS011;6658;53.080;7.428;2024-01-30T04:35:01;11.03;;;9.70;;
13185;SDS011;6658;53.080;7.428;2024-01-30T04:37:27;12.17;;;10.40;;
13185;SDS011;6658;53.080;7.428;2024-01-30T04:39:53;11.07;;;10.03;;
13185;SDS011;6658;53.080;7.428;2024-01-30T04:42:19;10.30;;;9.40;;
13185;SDS011;6658;53.080;7.428;2024-01-30T04:44:44;11.40;;;10.23;;
13185;SDS011;6658;53.080;7.428;2024-01-30T04:47:10;10.40;;;9.40;;
13185;SDS011;6658;53.080;7.428;2024-01-30T04:49:38;10.00;;;9.10;;
13185;SDS011;6658;53.080;7.428;2024-01-30T04:52:07;10.03;;;9.13;;
13185;SDS011;6658;53.080;7.428;2024-01-30T04:54:34;9.80;;;8.90;;
13185;SDS011;6658;53.080;7.428;2024-01-30T04:57:00;10.10;;;9.13;;
13185;SDS011;6658;53.080;7.428;2024-01-30T04:59:26;9.80;;;8.90;;
13185;SDS011;6658;53.080;7.428;2024-01-30T05:01:52;9.10;;;8.27;;
13185;SDS011;6658;53.080;7.428;2024-01-30T05:04:17;9.87;;;8.97;;
13185;SDS011;6658;53.080;7.428;2024-01-30T05:06:43;8.93;;;8.13;;
13185;SDS011;6658;53.080;7.428;2024-01-30T05:09:09;9.20;;;8.40;;
13185;SDS011;6658;53.080;7.428;2024-01-30T05:11:38;8.97;;;8.17;;
13185;SDS011;6658;53.080;7.428;2024-01-30T05:14:04;9.13;;;8.23;;
13185;SDS011;6658;53.080;7.428;2024-01-30T05:16:30;10.20;;;9.13;;
13185;SDS011;6658;53.080;7.428;2024-01-30T05:18:56;9.30;;;8.50;;
13185;SDS011;6658;53.080;7.428;2024-01-30T05:21:22;9.20;;;8.30;;
13185;SDS011;6658;53.080;7.428;2024-01-30T05:23:48;8.93;;;8.10;;
13185;SDS011;6658;53.080;7.428;2024-01-30T05:26:14;9.40;;;8.47;;
13185;SDS011;6658;53.080;7.428;2024-01-30T05:28:39;9.27;;;8.37;;
13185;SDS011;6658;53.080;7.428;2024-01-30T05:31:05;9.50;;;8.50;;
13185;SDS011;6658;53.080;7.428;2024-01-30T05:33:31;8.90;;;8.10;;
13185;SDS011;6658;53.080;7.428;2024-01-30T05:35:56;8.50;;;7.63;;
13185;SDS011;6658;53.080;7.428;2024-01-30T05:38:22;9.40;;;8.33;;
13185;SDS011;6658;53.080;7.428;2024-01-30T05:40:48;9.03;;;8.23;;
13185;SDS011;6658;53.080;7.428;2024-01-30T05:43:13;8.83;;;8.03;;
13185;SDS011;6658;53.080;7.428;2024-01-30T05:45:39;9.10;;;8.20;;
13185;SDS011;6658;53.080;7.428;2024-01-30T05:48:05;8.27;;;7.40;;
13185;SDS011;6658;53.080;7.428;2024-01-30T05:50:31;8.50;;;7.73;;
13185;SDS011;6658;53.080;7.428;2024-01-30T05:52:56;7.97;;;7.27;;
13185;SDS011;6658;53.080;7.428;2024-01-30T05:55:22;8.60;;;7.43;;
13185;SDS011;6658;53.080;7.428;2024-01-30T05:57:48;8.03;;;7.33;;
13185;SDS011;6658;53.080;7.428;2024-01-30T06:00:13;9.03;;;8.13;;
13185;SDS011;6658;53.080;7.428;2024-01-30T06:02:39;8.70;;;7.90;;
13185;SDS011;6658;53.080;7.428;2024-01-30T06:05:05;8.37;;;7.60;;
13185;SDS011;6658;53.080;7.428;2024-01-30T06:07:31;8.40;;;7.63;;
13185;SDS011;6658;53.080;7.428;2024-01-30T06:09:57;8.43;;;7.73;;
13185;SDS011;6658;53.080;7.428;2024-01-30T06:12:22;8.70;;;7.97;;
13185;SDS011;6658;53.080;7.428;2024-01-30T06:14:48;7.67;;;6.97;;
13185;SDS011;6658;53.080;7.428;2024-01-30T06:17:14;10.03;;;8.00;;
13185;SDS011;6658;53.080;7.428;2024-01-30T06:19:40;7.70;;;7.03;;
13185;SDS011;6658;53.080;7.428;2024-01-30T06:22:06;7.63;;;7.00;;
13185;SDS011;6658;53.080;7.428;2024-01-30T06:24:31;8.23;;;7.43;;
13185;SDS011;6658;53.080;7.428;2024-01-30T06:26:58;8.63;;;7.50;;
13185;SDS011;6658;53.080;7.428;2024-01-30T06:29:24;8.40;;;7.40;;
13185;SDS011;6658;53.080;7.428;2024-01-30T06:31:51;8.30;;;7.43;;
13185;SDS011;6658;53.080;7.428;2024-01-30T06:34:17;7.60;;;7.00;;
13185;SDS011;6658;53.080;7.428;2024-01-30T06:36:43;8.83;;;7.93;;
13185;SDS011;6658;53.080;7.428;2024-01-30T06:39:09;8.10;;;7.30;;
13185;SDS011;6658;53.080;7.428;2024-01-30T06:41:34;7.73;;;7.03;;
13185;SDS011;6658;53.080;7.428;2024-01-30T06:44:01;8.03;;;7.23;;
13185;SDS011;6658;53.080;7.428;2024-01-30T06:46:29;7.77;;;7.07;;
13185;SDS011;6658;53.080;7.428;2024-01-30T06:48:54;7.33;;;6.73;;
13185;SDS011;6658;53.080;7.428;2024-01-30T06:51:20;7.97;;;7.27;;
13185;SDS011;6658;53.080;7.428;2024-01-30T06:53:46;7.70;;;7.00;;
13185;SDS011;6658;53.080;7.428;2024-01-30T06:56:11;8.03;;;7.23;;
13185;SDS011;6658;53.080;7.428;2024-01-30T06:58:37;7.97;;;7.17;;
13185;SDS011;6658;53.080;7.428;2024-01-30T07:01:03;9.70;;;7.83;;
13185;SDS011;6658;53.080;7.428;2024-01-30T07:03:29;6.97;;;6.33;;
13185;SDS011;6658;53.080;7.428;2024-01-30T07:05:55;8.10;;;7.30;;
13185;SDS011;6658;53.080;7.428;2024-01-30T07:08:20;7.67;;;6.73;;
13185;SDS011;6658;53.080;7.428;2024-01-30T07:10:47;7.13;;;6.53;;
13185;SDS011;6658;53.080;7.428;2024-01-30T07:13:13;7.80;;;7.10;;
13185;SDS011;6658;53.080;7.428;2024-01-30T07:15:41;8.30;;;7.50;;
13185;SDS011;6658;53.080;7.428;2024-01-30T07:18:07;7.43;;;6.63;;
13185;SDS011;6658;53.080;7.428;2024-01-30T07:20:34;7.30;;;6.70;;
13185;SDS011;6658;53.080;7.428;2024-01-30T07:23:00;7.43;;;6.80;;
13185;SDS011;6658;53.080;7.428;2024-01-30T07:25:26;7.30;;;6.60;;
13185;SDS011;6658;53.080;7.428;2024-01-30T07:27:55;7.80;;;7.10;;
13185;SDS011;6658;53.080;7.428;2024-01-30T07:30:21;7.97;;;7.23;;
13185;SDS011;6658;53.080;7.428;2024-01-30T07:32:47;7.57;;;6.77;;
13185;SDS011;6658;53.080;7.428;2024-01-30T07:35:13;7.53;;;6.83;;
13185;SDS011;6658;53.080;7.428;2024-01-30T07:37:39;7.53;;;6.83;;
13185;SDS011;6658;53.080;7.428;2024-01-30T07:40:05;7.60;;;6.90;;
13185;SDS011;6658;53.080;7.428;2024-01-30T07:42:31;7.53;;;6.83;;
13185;SDS011;6658;53.080;7.428;2024-01-30T07:44:58;7.53;;;6.83;;
13185;SDS011;6658;53.080;7.428;2024-01-30T07:47:24;7.33;;;6.73;;
13185;SDS011;6658;53.080;7.428;2024-01-30T07:49:50;8.17;;;7.23;;
13185;SDS011;6658;53.080;7.428;2024-01-30T07:52:16;8.43;;;7.07;;
13185;SDS011;6658;53.080;7.428;2024-01-30T07:54:42;7.80;;;7.10;;
13185;SDS011;6658;53.080;7.428;2024-01-30T07:57:07;7.27;;;6.57;;
13185;SDS011;6658;53.080;7.428;2024-01-30T07:59:33;7.70;;;7.10;;
13185;SDS011;6658;53.080;7.428;2024-01-30T08:01:59;7.10;;;6.40;;
13185;SDS011;6658;53.080;7.428;2024-01-30T08:04:24;8.40;;;6.80;;
13185;SDS011;6658;53.080;7.428;2024-01-30T08:06:50;8.83;;;7.13;;
13185;SDS011;6658;53.080;7.428;2024-01-30T08:09:16;7.17;;;6.47;;
13185;SDS011;6658;53.080;7.428;2024-01-30T08:11:41;6.87;;;6.27;;
13185;SDS011;6658;53.080;7.428;2024-01-30T08:14:07;7.83;;;7.03;;
13185;SDS011;6658;53.080;7.428;2024-01-30T08:16:33;8.00;;;6.90;;
13185;SDS011;6658;53.080;7.428;2024-01-30T08:18:58;7.53;;;6.83;;
13185;SDS011;6658;53.080;7.428;2024-01-30T08:21:24;7.30;;;6.60;;
13185;SDS011;6658;53.080;7.428;2024-01-30T08:23:50;7.80;;;6.90;;
13185;SDS011;6658;53.080;7.428;2024-01-30T08:26:16;7.00;;;6.40;;
13185;SDS011;6658;53.080;7.428;2024-01-30T08:28:41;7.17;;;6.47;;
13185;SDS011;6658;53.080;7.428;2024-01-30T08:31:07;6.70;;;6.10;;
13185;SDS011;6658;53.080;7.428;2024-01-30T08:33:35;8.03;;;7.33;;
13185;SDS011;6658;53.080;7.428;2024-01-30T08:36:00;7.53;;;6.93;;
13185;SDS011;6658;53.080;7.428;2024-01-30T08:38:26;7.43;;;6.73;;
13185;SDS011;6658;53.080;7.428;2024-01-30T08:40:52;168.13;;;31.63;;
13185;SDS011;6658;53.080;7.428;2024-01-30T08:43:17;7.57;;;6.87;;
13185;SDS011;6658;53.080;7.428;2024-01-30T08:45:43;9.23;;;7.27;;
13185;SDS011;6658;53.080;7.428;2024-01-30T08:48:09;6.60;;;6.00;;
13185;SDS011;6658;53.080;7.428;2024-01-30T08:50:34;7.43;;;6.60;;
13185;SDS011;6658;53.080;7.428;2024-01-30T08:53:00;7.00;;;6.33;;
13185;SDS011;6658;53.080;7.428;2024-01-30T08:55:26;8.33;;;6.00;;
13185;SDS011;6658;53.080;7.428;2024-01-30T08:57:51;7.43;;;6.73;;
13185;SDS011;6658;53.080;7.428;2024-01-30T09:00:18;6.63;;;6.07;;
13185;SDS011;6658;53.080;7.428;2024-01-30T09:02:44;6.30;;;5.80;;
13185;SDS011;6658;53.080;7.428;2024-01-30T09:05:09;7.63;;;5.90;;
13185;SDS011;6658;53.080;7.428;2024-01-30T09:07:35;6.70;;;6.03;;
13185;SDS011;6658;53.080;7.428;2024-01-30T09:10:01;6.13;;;5.60;;
13185;SDS011;6658;53.080;7.428;2024-01-30T09:12:26;7.13;;;6.03;;
13185;SDS011;6658;53.080;7.428;2024-01-30T09:14:52;7.07;;;6.33;;
13185;SDS011;6658;53.080;7.428;2024-01-30T09:17:18;6.07;;;5.57;;
13185;SDS011;6658;53.080;7.428;2024-01-30T09:19:46;6.10;;;5.60;;
13185;SDS011;6658;53.080;7.428;2024-01-30T09:22:11;186.10;;;36.90;;
13185;SDS011;6658;53.080;7.428;2024-01-30T09:24:37;51.00;;;12.90;;
13185;SDS011;6658;53.080;7.428;2024-01-30T09:27:03;7.10;;;6.10;;
13185;SDS011;6658;53.080;7.428;2024-01-30T09:29:29;8.27;;;6.00;;
13185;SDS011;6658;53.080;7.428;2024-01-30T09:31:54;6.90;;;5.93;;
13185;SDS011;6658;53.080;7.428;2024-01-30T09:34:20;6.67;;;5.73;;
13185;SDS011;6658;53.080;7.428;2024-01-30T09:36:46;6.47;;;5.87;;
13185;SDS011;6658;53.080;7.428;2024-01-30T09:39:11;5.83;;;5.17;;
13185;SDS011;6658;53.080;7.428;2024-01-30T09:41:49;7.10;;;5.80;;
13185;SDS011;6658;53.080;7.428;2024-01-30T09:44:40;6.50;;;5.90;;
13185;SDS011;6658;53.080;7.428;2024-01-30T09:47:08;30.00;;;8.97;;
13185;SDS011;6658;53.080;7.428;2024-01-30T09:49:35;122.33;;;23.97;;
13185;SDS011;6658;53.080;7.428;2024-01-30T09:52:02;6.03;;;5.20;;
13185;SDS011;6658;53.080;7.428;2024-01-30T09:54:32;6.30;;;5.57;;
13185;SDS011;6658;53.080;7.428;2024-01-30T09:56:59;6.13;;;5.53;;
13185;SDS011;6658;53.080;7.428;2024-01-30T09:59:24;5.90;;;5.40;;
13185;SDS011;6658;53.080;7.428;2024-01-30T10:01:50;6.10;;;5.50;;
13185;SDS011;6658;53.080;7.428;2024-01-30T10:04:16;6.43;;;5.70;;
13185;SDS011;6658;53.080;7.428;2024-01-30T10:06:42;6.47;;;5.87;;
13185;SDS011;6658;53.080;7.428;2024-01-30T10:09:08;5.67;;;5.07;;
13185;SDS011;6658;53.080;7.428;2024-01-30T10:11:38;5.93;;;5.43;;
13185;SDS011;6658;53.080;7.428;2024-01-30T10:14:04;8.30;;;6.13;;
13185;SDS011;6658;53.080;7.428;2024-01-30T10:16:29;5.53;;;5.10;;
13185;SDS011;6658;53.080;7.428;2024-01-30T10:18:56;6.97;;;5.03;;
13185;SDS011;6658;53.080;7.428;2024-01-30T10:21:22;5.57;;;5.07;;
13185;SDS011;6658;53.080;7.428;2024-01-30T10:23:49;6.33;;;5.50;;
13185;SDS011;6658;53.080;7.428;2024-01-30T10:26:16;7.07;;;5.30;;
13185;SDS011;6658;53.080;7.428;2024-01-30T10:28:42;5.93;;;4.87;;
13185;SDS011;6658;53.080;7.428;2024-01-30T10:31:08;5.17;;;4.70;;
13185;SDS011;6658;53.080;7.428;2024-01-30T10:33:34;5.27;;;4.77;;
13185;SDS011;6658;53.080;7.428;2024-01-30T10:36:00;5.00;;;4.60;;
13185;SDS011;6658;53.080;7.428;2024-01-30T10:38:30;5.33;;;4.83;;
13185;SDS011;6658;53.080;7.428;2024-01-30T10:40:57;5.73;;;5.30;;
13185;SDS011;6658;53.080;7.428;2024-01-30T10:43:31;5.87;;;5.27;;
13185;SDS011;6658;53.080;7.428;2024-01-30T10:46:09;4.90;;;4.40;;
13185;SDS011;6658;53.080;7.428;2024-01-30T10:48:46;5.33;;;4.87;;
13185;SDS011;6658;53.080;7.428;2024-01-30T10:51:22;5.67;;;5.17;;
13185;SDS011;6658;53.080;7.428;2024-01-30T10:53:48;5.77;;;4.67;;
13185;SDS011;6658;53.080;7.428;2024-01-30T10:56:16;5.67;;;5.13;;
13185;SDS011;6658;53.080;7.428;2024-01-30T10:58:43;5.37;;;4.80;;
13185;SDS011;6658;53.080;7.428;2024-01-30T11:01:09;5.13;;;4.63;;
13185;SDS011;6658;53.080;7.428;2024-01-30T11:03:35;5.40;;;4.90;;
13185;SDS011;6658;53.080;7.428;2024-01-30T11:06:02;5.60;;;5.00;;
13185;SDS011;6658;53.080;7.428;2024-01-30T11:08:28;5.83;;;5.30;;
13185;SDS011;6658;53.080;7.428;2024-01-30T11:10:57;5.00;;;4.50;;
13185;SDS011;6658;53.080;7.428;2024-01-30T11:13:29;5.63;;;4.57;;
13185;SDS011;6658;53.080;7.428;2024-01-30T11:16:02;5.23;;;4.73;;
13185;SDS011;6658;53.080;7.428;2024-01-30T11:18:30;5.03;;;4.57;;
13185;SDS011;6658;53.080;7.428;2024-01-30T11:20:57;5.00;;;4.50;;
13185;SDS011;6658;53.080;7.428;2024-01-30T11:23:23;5.13;;;4.63;;
13185;SDS011;6658;53.080;7.428;2024-01-30T11:25:51;5.70;;;5.27;;
13185;SDS011;6658;53.080;7.428;2024-01-30T11:28:18;5.50;;;5.00;;
13185;SDS011;6658;53.080;7.428;2024-01-30T11:30:44;6.03;;;5.47;;
13185;SDS011;6658;53.080;7.428;2024-01-30T11:33:10;5.67;;;5.07;;
13185;SDS011;6658;53.080;7.428;2024-01-30T11:38:07;5.63;;;5.13;;
13185;SDS011;6658;53.080;7.428;2024-01-30T11:40:36;5.70;;;5.00;;
13185;SDS011;6658;53.080;7.428;2024-01-30T11:43:03;6.10;;;5.03;;
13185;SDS011;6658;53.080;7.428;2024-01-30T11:45:30;5.53;;;5.03;;
13185;SDS011;6658;53.080;7.428;2024-01-30T11:47:57;6.40;;;5.47;;
13185;SDS011;6658;53.080;7.428;2024-01-30T11:50:25;6.00;;;4.93;;
13185;SDS011;6658;53.080;7.428;2024-01-30T11:52:51;6.83;;;5.27;;
13185;SDS011;6658;53.080;7.428;2024-01-30T11:55:16;5.70;;;5.20;;
13185;SDS011;6658;53.080;7.428;2024-01-30T11:57:44;5.93;;;4.83;;
13185;SDS011;6658;53.080;7.428;2024-01-30T12:00:16;5.73;;;5.23;;
13185;SDS011;6658;53.080;7.428;2024-01-30T12:02:53;6.00;;;5.40;;
13185;SDS011;6658;53.080;7.428;2024-01-30T12:05:23;6.00;;;5.50;;
13185;SDS011;6658;53.080;7.428;2024-01-30T12:07:50;6.60;;;6.00;;
13185;SDS011;6658;53.080;7.428;2024-01-30T12:10:16;6.43;;;5.23;;
13185;SDS011;6658;53.080;7.428;2024-01-30T12:12:45;6.97;;;5.40;;
13185;SDS011;6658;53.080;7.428;2024-01-30T12:15:12;6.37;;;5.47;;
13185;SDS011;6658;53.080;7.428;2024-01-30T12:17:39;6.00;;;5.40;;
13185;SDS011;6658;53.080;7.428;2024-01-30T12:20:09;5.40;;;4.83;;
13185;SDS011;6658;53.080;7.428;2024-01-30T12:22:40;5.80;;;5.30;;
13185;SDS011;6658;53.080;7.428;2024-01-30T12:25:10;5.73;;;5.23;;
13185;SDS011;6658;53.080;7.428;2024-01-30T12:27:37;6.10;;;5.50;;
13185;SDS011;6658;53.080;7.428;2024-01-30T12:30:07;5.70;;;5.20;;
13185;SDS011;6658;53.080;7.428;2024-01-30T12:32:42;6.50;;;5.27;;
13185;SDS011;6658;53.080;7.428;2024-01-30T12:35:12;6.07;;;5.37;;
13185;SDS011;6658;53.080;7.428;2024-01-30T12:37:39;9.77;;;8.57;;
13185;SDS011;6658;53.080;7.428;2024-01-30T12:40:07;8.03;;;7.13;;
13185;SDS011;6658;53.080;7.428;2024-01-30T12:42:33;7.30;;;6.63;;
13185;SDS011;6658;53.080;7.428;2024-01-30T12:44:59;5.90;;;5.30;;
13185;SDS011;6658;53.080;7.428;2024-01-30T12:47:25;5.90;;;5.30;;
13185;SDS011;6658;53.080;7.428;2024-01-30T12:49:51;6.93;;;6.23;;
13185;SDS011;6658;53.080;7.428;2024-01-30T12:52:18;7.20;;;6.60;;
13185;SDS011;6658;53.080;7.428;2024-01-30T12:54:45;8.03;;;7.43;;
13185;SDS011;6658;53.080;7.428;2024-01-30T12:57:11;6.77;;;6.07;;
13185;SDS011;6658;53.080;7.428;2024-01-30T12:59:37;7.40;;;6.60;;
13185;SDS011;6658;53.080;7.428;2024-01-30T13:02:03;6.50;;;5.90;;
13185;SDS011;6658;53.080;7.428;2024-01-30T13:04:29;6.37;;;5.77;;
13185;SDS011;6658;53.080;7.428;2024-01-30T13:06:54;5.83;;;5.33;;
13185;SDS011;6658;53.080;7.428;2024-01-30T13:09:20;5.70;;;5.10;;
13185;SDS011;6658;53.080;7.428;2024-01-30T13:11:47;5.60;;;5.10;;
13185;SDS011;6658;53.080;7.428;2024-01-30T13:14:14;5.50;;;5.00;;
13185;SDS011;6658;53.080;7.428;2024-01-30T13:16:39;6.33;;;5.37;;
13185;SDS011;6658;53.080;7.428;2024-01-30T13:19:05;5.70;;;5.00;;
13185;SDS011;6658;53.080;7.428;2024-01-30T13:21:31;6.53;;;5.83;;
13185;SDS011;6658;53.080;7.428;2024-01-30T13:23:57;9.67;;;8.83;;
13185;SDS011;6658;53.080;7.428;2024-01-30T13:26:23;6.67;;;5.90;;
13185;SDS011;6658;53.080;7.428;2024-01-30T13:28:49;6.20;;;5.70;;
13185;SDS011;6658;53.080;7.428;2024-01-30T13:31:15;6.10;;;5.50;;
13185;SDS011;6658;53.080;7.428;2024-01-30T13:33:41;5.30;;;4.90;;
13185;SDS011;6658;53.080;7.428;2024-01-30T13:36:07;5.77;;;5.27;;
13185;SDS011;6658;53.080;7.428;2024-01-30T13:38:35;6.13;;;5.00;;
13185;SDS011;6658;53.080;7.428;2024-01-30T13:41:01;5.63;;;5.03;;
13185;SDS011;6658;53.080;7.428;2024-01-30T13:43:26;5.37;;;4.87;;
13185;SDS011;6658;53.080;7.428;2024-01-30T13:45:52;5.43;;;4.93;;
13185;SDS011;6658;53.080;7.428;2024-01-30T13:48:18;6.63;;;5.07;;
13185;SDS011;6658;53.080;7.428;2024-01-30T13:50:44;4.53;;;3.83;;
13185;SDS011;6658;53.080;7.428;2024-01-30T13:53:11;5.23;;;4.70;;
13185;SDS011;6658;53.080;7.428;2024-01-30T13:55:37;5.87;;;4.07;;
13185;SDS011;6658;53.080;7.428;2024-01-30T13:58:04;6.53;;;4.13;;
13185;SDS011;6658;53.080;7.428;2024-01-30T14:00:30;4.97;;;3.70;;
13185;SDS011;6658;53.080;7.428;2024-01-30T14:02:56;5.50;;;3.33;;
13185;SDS011;6658;53.080;7.428;2024-01-30T14:05:23;5.23;;;3.20;;
13185;SDS011;6658;53.080;7.428;2024-01-30T14:07:50;3.97;;;3.47;;
13185;SDS011;6658;53.080;7.428;2024-01-30T14:10:16;3.80;;;3.07;;
13185;SDS011;6658;53.080;7.428;2024-01-30T14:12:43;4.47;;;3.27;;
13185;SDS011;6658;53.080;7.428;2024-01-30T14:15:13;4.73;;;2.90;;
13185;SDS011;6658;53.080;7.428;2024-01-30T14:17:46;4.50;;;4.10;;
13185;SDS011;6658;53.080;7.428;2024-01-30T14:20:13;3.77;;;3.07;;
13185;SDS011;6658;53.080;7.428;2024-01-30T14:22:41;3.03;;;2.73;;
13185;SDS011;6658;53.080;7.428;2024-01-30T14:25:07;4.60;;;2.80;;
13185;SDS011;6658;53.080;7.428;2024-01-30T14:27:34;3.10;;;2.17;;
13185;SDS011;6658;53.080;7.428;2024-01-30T14:30:00;3.77;;;2.87;;
13185;SDS011;6658;53.080;7.428;2024-01-30T14:32:26;2.60;;;2.40;;
13185;SDS011;6658;53.080;7.428;2024-01-30T14:34:52;2.40;;;2.20;;
13185;SDS011;6658;53.080;7.428;2024-01-30T14:37:18;3.67;;;2.47;;
13185;SDS011;6658;53.080;7.428;2024-01-30T14:39:44;2.20;;;2.10;;
13185;SDS011;6658;53.080;7.428;2024-01-30T14:42:10;3.17;;;2.50;;
13185;SDS011;6658;53.080;7.428;2024-01-30T14:44:35;3.40;;;3.00;;
13185;SDS011;6658;53.080;7.428;2024-01-30T14:47:01;4.07;;;2.70;;
13185;SDS011;6658;53.080;7.428;2024-01-30T14:49:27;2.93;;;2.40;;
13185;SDS011;6658;53.080;7.428;2024-01-30T14:51:53;3.47;;;3.17;;
13185;SDS011;6658;53.080;7.428;2024-01-30T14:54:19;3.30;;;3.00;;
13185;SDS011;6658;53.080;7.428;2024-01-30T14:56:45;3.73;;;3.37;;
13185;SDS011;6658;53.080;7.428;2024-01-30T14:59:11;4.57;;;2.80;;
13185;SDS011;6658;53.080;7.428;2024-01-30T15:01:37;3.37;;;2.97;;
13185;SDS011;6658;53.080;7.428;2024-01-30T15:04:02;4.30;;;3.23;;
13185;SDS011;6658;53.080;7.428;2024-01-30T15:06:28;2.80;;;2.60;;
13185;SDS011;6658;53.080;7.428;2024-01-30T15:08:54;2.50;;;2.30;;
13185;SDS011;6658;53.080;7.428;2024-01-30T15:11:20;2.50;;;2.23;;
13185;SDS011;6658;53.080;7.428;2024-01-30T15:13:46;2.30;;;2.10;;
13185;SDS011;6658;53.080;7.428;2024-01-30T15:16:11;2.87;;;2.27;;
13185;SDS011;6658;53.080;7.428;2024-01-30T15:18:37;2.00;;;1.80;;
13185;SDS011;6658;53.080;7.428;2024-01-30T15:21:03;2.03;;;1.80;;
13185;SDS011;6658;53.080;7.428;2024-01-30T15:23:29;2.03;;;1.90;;
13185;SDS011;6658;53.080;7.428;2024-01-30T15:25:54;2.47;;;1.87;;
13185;SDS011;6658;53.080;7.428;2024-01-30T15:28:23;2.60;;;2.23;;
13185;SDS011;6658;53.080;7.428;2024-01-30T15:31:02;2.40;;;1.90;;
13185;SDS011;6658;53.080;7.428;2024-01-30T15:33:29;2.60;;;1.40;;